MAPA DE AEROPUERTO

INFORMACIÓN METAR y TAF

METAR FOR LEJR
ADDS - METARS form results

(0857 UTC 22 January 2021)
Data provider http://aviationweather.gov/metar/data/
 
METAR text: LEJR 220830Z 26013KT 9999 FEW018 15/12 Q1020
Conditions at: LEJR (JEREZ (CIV/MIL) , ES) observed 0830 UTC 22 January 2021
Temperature: 15.0°C (59°F)
Dewpoint: 12.0°C (54°F) [RH = 82%]
Pressure (altimeter): 30.12 inches Hg (1020.0 mb)
Winds: from the W (260 degrees) at 15 MPH (13 knots; 6.7 m/s)
Visibility: 6 or more miles (10+ km)
Ceiling: at least 12,000 feet AGL
Clouds: few clouds at 1800 feet AGL
Weather: no significant weather observed at this time

METAR text: LEJR 220800Z 25010KT 9999 SCT020 15/13 Q1019
Conditions at: LEJR (JEREZ (CIV/MIL) , ES) observed 0800 UTC 22 January 2021
Temperature: 15.0°C (59°F)
Dewpoint: 13.0°C (55°F) [RH = 88%]
Pressure (altimeter): 30.09 inches Hg (1019.0 mb)
Winds: from the WSW (250 degrees) at 12 MPH (10 knots; 5.1 m/s)
Visibility: 6 or more miles (10+ km)
Ceiling: at least 12,000 feet AGL
Clouds: scattered clouds at 2000 feet AGL
Weather: no significant weather observed at this time

Forecast for: LEJR (JEREZ (CIV/MIL) , ES)
Text: TAF LEJR 220500Z 2206/2306 26014KT 9999 SCT020 BKN035 TX17/2214Z TN09/2224Z
Forecast period: 0600 to 1800 UTC 22 January 2021
Forecast type: FROM: standard forecast or significant change
Winds: from the W (260 degrees) at 16 MPH (14 knots; 7.2 m/s)
Visibility: 6 or more miles (10+ km)
Ceiling: 3500 feet AGL
Clouds: scattered clouds at 2000 feet AGL
broken clouds at 3500 feet AGL
Weather: no significant weather forecast for this period
Text: PROB30
Forecast period: 0600 to 0800 UTC 22 January 2021
Forecast type: TEMPORARY: The following changes expected for less than half the time period
Visibility: 2.49 miles (4.01 km)
Ceiling: 1200 feet AGL
Clouds: broken clouds at 1200 feet AGL
Weather: -RA  (light rain)
Text: TEMPO 2206/2208 4000 -RA BKN012
Forecast period: 1800 UTC 22 January 2021 to 0600 UTC 23 January 2021
Forecast type: BECOMING: Conditions expected to become as follows by 2100 UTC 22 January 2021
Winds: from the WNW (290 degrees) at 5 MPH (4 knots; 2.1 m/s)
Visibility: 6 or more miles (10+ km)
Ceiling: 3500 feet AGL
Clouds: scattered clouds at 2000 feet AGL
broken clouds at 3500 feet AGL
Weather: no significant weather forecast for this period